Time;durP1;ratioP1;P1;durP2;ratioP2;P2;SDS_P1;SDS_P2;PMS_P1;PMS_P2;Temp;Humidity;BMP_temperature;BMP_pressure;BME280_temperature;BME280_humidity;BME280_pressure;Samples;Min_cycle;Max_cycle;Signal;HPM_P1;HPM_P2
2022/11/29 00:02:23;;;;;;;;;;;;;;;6.43;63.57;95358.75;5114386;27;954;-66
2022/11/29 00:04:49;;;;;;;;;;;;;;;6.70;63.56;95364.50;5114403;28;1012;-66
2022/11/29 00:07:15;;;;;;;;;;;;;;;6.84;62.73;95351.66;5114251;28;984;-66
2022/11/29 00:09:41;;;;;;;;;;;;;;;6.98;61.91;95350.47;5114173;28;1910;-66
2022/11/29 00:12:13;;;;;;;;;;;;;;;7.12;61.98;95354.59;5114034;28;1120;-66
2022/11/29 00:14:39;;;;;;;;;;;;;;;7.17;61.22;95364.78;5114279;28;1023;-66
2022/11/29 00:17:05;;;;;;;;;;;;;;;7.14;61.56;95362.44;5114028;28;916;-66
2022/11/29 00:19:32;;;;;;;;;;;;;;;7.06;61.42;95368.41;5114150;28;1063;-66
2022/11/29 00:21:59;;;;;;;;;;;;;;;6.91;61.62;95365.28;5114140;28;1125;-66
2022/11/29 00:24:25;;;;;;;;;;;;;;;7.00;61.68;95364.47;5113941;28;972;-66
2022/11/29 00:26:51;;;;;;;;;;;;;;;7.08;61.17;95369.13;5114215;28;1000;-66
2022/11/29 00:29:17;;;;;;;;;;;;;;;6.96;61.41;95364.88;5113981;28;1906;-66
2022/11/29 00:31:44;;;;;;;;;;;;;;;7.08;61.93;95369.13;5113929;28;1052;-66
2022/11/29 00:34:10;;;;;;;;;;;;;;;7.15;61.54;95361.44;5113887;28;1049;-66
2022/11/29 00:36:36;;;;;;;;;;;;;;;7.15;61.57;95364.97;5113788;28;1120;-66
2022/11/29 00:39:03;;;;;;;;;;;;;;;7.16;61.61;95369.28;5113629;28;1169;-66
2022/11/29 00:41:29;;;;;;;;;;;;;;;7.18;61.92;95370.00;5113747;28;1584;-65
2022/11/29 00:43:55;;;;;;;;;;;;;;;7.02;61.80;95369.66;5114019;28;1059;-66
2022/11/29 00:46:21;;;;;;;;;;;;;;;7.00;61.89;95366.28;5113671;28;1045;-66
2022/11/29 00:48:47;;;;;;;;;;;;;;;6.98;61.97;95369.09;5113769;28;1128;-66
2022/11/29 00:51:14;;;;;;;;;;;;;;;6.94;61.26;95377.44;5113743;28;1024;-66
2022/11/29 00:53:40;;;;;;;;;;;;;;;6.96;61.66;95370.19;5113590;28;1104;-66
2022/11/29 00:56:06;;;;;;;;;;;;;;;6.98;60.98;95365.56;5113903;28;1277;-66
2022/11/29 00:58:34;;;;;;;;;;;;;;;7.03;61.55;95366.84;5113831;28;1053;-66
2022/11/29 01:01:00;;;;;;;;;;;;;;;6.98;61.69;95369.09;5113665;28;1092;-66
2022/11/29 01:03:26;;;;;;;;;;;;;;;6.96;60.86;95363.06;5113633;28;1063;-66
2022/11/29 01:05:52;;;;;;;;;;;;;;;6.86;61.34;95358.69;5113681;28;969;-66
2022/11/29 01:08:18;;;;;;;;;;;;;;;6.79;61.75;95367.19;5113463;28;1022;-66
2022/11/29 01:10:44;;;;;;;;;;;;;;;6.96;61.83;95359.53;5113537;28;1913;-66
2022/11/29 01:13:10;;;;;;;;;;;;;;;6.93;61.91;95358.00;5116863;28;1048;-66
2022/11/29 01:15:37;;;;;;;;;;;;;;;6.96;61.93;95363.06;5117581;28;1045;-66
2022/11/29 01:18:03;;;;;;;;;;;;;;;6.93;61.53;95359.84;5117496;28;1047;-66
2022/11/29 01:20:29;;;;;;;;;;;;;;;6.84;61.93;95356.16;5117461;28;1210;-66
2022/11/29 01:22:55;;;;;;;;;;;;;;;6.93;62.15;95355.34;5117388;28;1059;-66
2022/11/29 01:25:21;;;;;;;;;;;;;;;7.02;61.96;95349.22;5117189;28;1043;-66
2022/11/29 01:27:47;;;;;;;;;;;;;;;7.09;61.76;95354.00;5117489;28;1356;-66
2022/11/29 01:30:13;;;;;;;;;;;;;;;7.10;61.61;95350.38;5117267;28;1913;-66
2022/11/29 01:32:39;;;;;;;;;;;;;;;6.97;61.73;95351.44;5117349;28;1004;-66
2022/11/29 01:35:06;;;;;;;;;;;;;;;6.94;61.79;95353.53;5117194;28;979;-66
2022/11/29 01:37:32;;;;;;;;;;;;;;;7.01;61.40;95350.19;5116966;28;1064;-66
2022/11/29 01:39:58;;;;;;;;;;;;;;;7.03;61.69;95353.56;5116723;28;1208;-66
2022/11/29 01:42:24;;;;;;;;;;;;;;;7.02;61.67;95345.75;5116860;28;1103;-66
2022/11/29 01:45:13;;;;;;;;;;;;;;;7.05;61.76;95340.13;5116942;28;1060;-66
2022/11/29 01:47:42;;;;;;;;;;;;;;;6.96;62.11;95344.47;5108699;28;1228;-66
2022/11/29 01:50:09;;;;;;;;;;;;;;;6.93;61.59;95341.22;5116701;28;1906;-66
2022/11/29 01:52:35;;;;;;;;;;;;;;;6.73;62.06;95342.94;5116720;28;1134;-66
2022/11/29 01:55:04;;;;;;;;;;;;;;;6.80;62.27;95352.91;5116646;28;1108;-65
2022/11/29 01:57:31;;;;;;;;;;;;;;;6.83;62.15;95344.69;5115587;28;1063;-66
2022/11/29 02:00:01;;;;;;;;;;;;;;;6.90;62.30;95337.00;5116771;28;992;-66
2022/11/29 02:02:29;;;;;;;;;;;;;;;6.81;62.31;95335.13;5116591;28;969;-65
2022/11/29 02:04:56;;;;;;;;;;;;;;;6.82;62.31;95332.34;5116518;28;929;-66
2022/11/29 02:07:22;;;;;;;;;;;;;;;7.00;62.23;95332.56;5116698;28;965;-66
2022/11/29 02:09:48;;;;;;;;;;;;;;;7.10;61.38;95329.13;5116395;28;1913;-66
2022/11/29 02:12:20;;;;;;;;;;;;;;;7.06;61.55;95343.63;5116518;28;944;-66
2022/11/29 02:15:07;;;;;;;;;;;;;;;7.04;62.05;95341.97;5116395;28;1029;-66
2022/11/29 02:17:51;;;;;;;;;;;;;;;6.93;62.08;95342.06;5116207;28;1116;-66
2022/11/29 02:20:36;;;;;;;;;;;;;;;6.76;61.99;95340.88;5116145;28;1061;-66
2022/11/29 02:23:27;;;;;;;;;;;;;;;6.81;62.83;95346.63;5115913;28;1074;-66
2022/11/29 02:26:16;;;;;;;;;;;;;;;6.90;62.17;95338.81;5116210;28;1039;-66
2022/11/29 02:29:00;;;;;;;;;;;;;;;6.93;62.09;95341.22;5116182;28;1124;-66
2022/11/29 02:31:33;;;;;;;;;;;;;;;6.99;61.91;95336.19;5115931;28;1119;-66
2022/11/29 02:34:05;;;;;;;;;;;;;;;6.87;62.36;95339.06;5116020;28;1040;-66
2022/11/29 02:36:34;;;;;;;;;;;;;;;6.80;62.86;95346.75;5115843;28;1073;-66
2022/11/29 02:39:15;;;;;;;;;;;;;;;6.81;62.09;95346.63;5115800;28;1312;-65
2022/11/29 02:41:50;;;;;;;;;;;;;;;6.91;62.65;95353.81;5115937;28;1006;-66
2022/11/29 02:44:28;;;;;;;;;;;;;;;6.89;62.57;95356.59;5115724;28;981;-66
2022/11/29 02:47:00;;;;;;;;;;;;;;;6.83;62.36;95343.84;5115701;28;1005;-66
2022/11/29 02:49:36;;;;;;;;;;;;;;;6.89;62.77;95355.75;5115750;28;1902;-66
2022/11/29 02:52:06;;;;;;;;;;;;;;;6.89;62.67;95353.09;5115673;28;1060;-66
2022/11/29 02:54:32;;;;;;;;;;;;;;;6.88;62.93;95357.56;5115683;28;973;-66
2022/11/29 02:57:20;;;;;;;;;;;;;;;7.00;62.42;95356.50;5115522;28;973;-66
2022/11/29 03:00:08;;;;;;;;;;;;;;;7.04;62.67;95349.09;5115782;28;965;-66
2022/11/29 03:02:38;;;;;;;;;;;;;;;6.99;61.71;95348.66;5115321;28;1161;-65
2022/11/29 03:05:20;;;;;;;;;;;;;;;7.07;62.22;95351.47;5115395;28;1119;-66
2022/11/29 03:07:50;;;;;;;;;;;;;;;7.12;62.33;95348.44;5115314;28;1115;-66
2022/11/29 03:10:37;;;;;;;;;;;;;;;7.10;61.96;95351.22;5115209;28;1910;-66
2022/11/29 03:13:07;;;;;;;;;;;;;;;7.09;61.33;95351.34;5115451;28;1004;-66
2022/11/29 03:15:40;;;;;;;;;;;;;;;7.16;61.40;95355.16;5115159;28;964;-66
2022/11/29 03:18:09;;;;;;;;;;;;;;;7.08;61.59;95350.50;5115068;28;1127;-66
2022/11/29 03:20:54;;;;;;;;;;;;;;;7.09;61.44;95357.50;5114948;28;1045;-66
2022/11/29 03:23:43;;;;;;;;;;;;;;;7.11;61.81;95358.19;5115091;28;961;-66
2022/11/29 03:26:12;;;;;;;;;;;;;;;7.18;61.68;95355.84;5106791;28;1161;-66
2022/11/29 03:28:45;;;;;;;;;;;;;;;7.01;61.70;95357.34;5114911;28;1169;-66
2022/11/29 03:31:13;;;;;;;;;;;;;;;7.10;61.96;95353.03;5114866;28;1898;-66
2022/11/29 03:33:49;;;;;;;;;;;;;;;7.19;61.55;95358.38;5114614;28;1037;-66
2022/11/29 03:36:20;;;;;;;;;;;;;;;7.13;61.98;95363.38;5114422;28;1040;-66
2022/11/29 03:38:46;;;;;;;;;;;;;;;7.10;62.13;95361.84;5114475;28;1261;-66
2022/11/29 03:41:15;;;;;;;;;;;;;;;7.10;61.65;95364.50;5114607;28;1057;-68
2022/11/29 03:44:00;;;;;;;;;;;;;;;7.00;62.61;95355.63;5114806;28;988;-64
2022/11/29 03:46:26;;;;;;;;;;;;;;;7.09;62.25;95354.00;5114592;28;967;-67
2022/11/29 03:48:55;;;;;;;;;;;;;;;7.13;62.14;95352.75;5114644;28;988;-65
2022/11/29 03:51:41;;;;;;;;;;;;;;;7.19;61.81;95357.53;5114403;28;1080;-66
2022/11/29 03:54:13;;;;;;;;;;;;;;;7.02;62.35;95359.03;5114687;28;1036;-66
2022/11/29 03:56:39;;;;;;;;;;;;;;;6.89;62.79;95358.41;5114562;28;995;-64
2022/11/29 03:59:08;;;;;;;;;;;;;;;6.89;63.36;95353.09;5114330;28;1060;-65
2022/11/29 04:01:47;;;;;;;;;;;;;;;6.79;63.10;95366.31;5114290;28;964;-65
2022/11/29 04:04:33;;;;;;;;;;;;;;;6.76;62.84;95350.66;5114169;28;1044;-65
2022/11/29 04:06:59;;;;;;;;;;;;;;;6.52;63.62;95346.47;5103582;28;1165;-65
2022/11/29 04:09:37;;;;;;;;;;;;;;;6.54;64.17;95351.66;5114097;28;1994;-65
2022/11/29 04:12:22;;;;;;;;;;;;;;;6.75;64.01;95352.47;5114234;28;994;-65
2022/11/29 04:15:17;;;;;;;;;;;;;;;6.75;63.97;95356.94;5114333;28;1035;-66
2022/11/29 04:17:46;;;;;;;;;;;;;;;6.75;63.86;95356.94;5100870;28;1301;-66
2022/11/29 04:20:31;;;;;;;;;;;;;;;6.75;63.62;95356.94;5114091;28;977;-66
2022/11/29 04:23:00;;;;;;;;;;;;;;;6.88;62.77;95354.06;5113926;28;1131;-65
2022/11/29 04:25:45;;;;;;;;;;;;;;;6.92;62.91;95353.66;5113902;28;1057;-65
2022/11/29 04:28:11;;;;;;;;;;;;;;;6.86;62.79;95353.38;5113927;28;1061;-65
2022/11/29 04:30:51;;;;;;;;;;;;;;;6.81;63.23;95361.72;5113717;28;2014;-65
2022/11/29 04:33:36;;;;;;;;;;;;;;;6.66;63.65;95361.25;5113852;28;1032;-65
2022/11/29 04:36:05;;;;;;;;;;;;;;;6.69;63.56;95354.81;5113812;28;1024;-66
2022/11/29 04:39:01;;;;;;;;;;;;;;;6.70;63.59;95359.19;5113832;28;1448;-65
2022/11/29 04:41:42;;;;;;;;;;;;;;;6.56;63.82;95352.38;5058756;28;1277;-66
2022/11/29 04:44:14;;;;;;;;;;;;;;;6.52;64.04;95349.13;5113779;28;1116;-66
2022/11/29 04:46:58;;;;;;;;;;;;;;;6.56;64.23;95357.69;5116606;28;976;-65
2022/11/29 04:49:43;;;;;;;;;;;;;;;6.57;63.93;95362.03;5117777;28;1980;-65
2022/11/29 04:52:09;;;;;;;;;;;;;;;6.39;64.38;95365.28;5117863;28;1314;-65
2022/11/29 04:54:54;;;;;;;;;;;;;;;6.33;64.52;95362.31;5117991;28;1013;-65
2022/11/29 04:57:28;;;;;;;;;;;;;;;6.41;64.22;95357.16;5117979;28;985;-66
2022/11/29 04:59:57;;;;;;;;;;;;;;;6.35;65.13;95365.66;5117992;28;949;-65
2022/11/29 05:02:41;;;;;;;;;;;;;;;6.62;64.35;95360.66;5117672;28;1052;-65
2022/11/29 05:05:28;;;;;;;;;;;;;;;6.77;63.62;95366.47;5117628;28;1477;-65
2022/11/29 05:08:00;;;;;;;;;;;;;;;6.77;63.52;95355.84;5117885;28;956;-64
2022/11/29 05:10:33;;;;;;;;;;;;;;;6.54;63.45;95359.63;5117435;28;1983;-65
2022/11/29 05:13:10;;;;;;;;;;;;;;;6.42;64.40;95357.03;5117587;28;997;-64
2022/11/29 05:15:49;;;;;;;;;;;;;;;6.49;64.15;95361.81;5117716;28;1019;-66
2022/11/29 05:18:15;;;;;;;;;;;;;;;6.54;64.12;95367.59;5117404;28;1104;-66
2022/11/29 05:20:49;;;;;;;;;;;;;;;6.74;63.84;95366.72;5117408;28;1172;-66
2022/11/29 05:23:15;;;;;;;;;;;;;;;6.91;63.07;95362.63;5117344;28;1201;-66
2022/11/29 05:25:41;;;;;;;;;;;;;;;6.86;63.41;95356.03;5117287;28;1069;-65
2022/11/29 05:28:10;;;;;;;;;;;;;;;6.92;62.76;95356.31;5117225;28;1052;-65
2022/11/29 05:30:42;;;;;;;;;;;;;;;6.90;63.04;95352.13;5117278;28;2002;-67
2022/11/29 05:33:16;;;;;;;;;;;;;;;6.91;63.22;95356.47;5117192;28;1032;-68
2022/11/29 05:35:53;;;;;;;;;;;;;;;6.61;63.57;95368.75;5117217;28;1068;-68
2022/11/29 05:38:44;;;;;;;;;;;;;;;6.61;63.79;95366.94;5116884;28;1180;-68
2022/11/29 05:41:10;;;;;;;;;;;;;;;6.72;63.03;95371.34;5117000;28;1103;-68
2022/11/29 05:43:55;;;;;;;;;;;;;;;6.90;62.97;95371.56;5116993;28;1021;-67
2022/11/29 05:46:28;;;;;;;;;;;;;;;7.05;62.29;95364.06;5116811;28;1135;-67
2022/11/29 05:49:00;;;;;;;;;;;;;;;6.73;63.02;95370.34;5116888;28;1052;-67
2022/11/29 05:51:45;;;;;;;;;;;;;;;6.81;62.93;95367.91;5115703;28;993;-67
2022/11/29 05:54:17;;;;;;;;;;;;;;;6.68;63.14;95367.28;5116889;28;1088;-67
2022/11/29 05:56:58;;;;;;;;;;;;;;;6.69;63.31;95371.59;5116680;28;1044;-68
2022/11/29 05:59:28;;;;;;;;;;;;;;;6.59;63.76;95370.72;5116381;28;1150;-67
2022/11/29 06:02:03;;;;;;;;;;;;;;;6.47;64.24;95369.94;5116742;28;1051;-67
2022/11/29 06:04:47;;;;;;;;;;;;;;;6.49;63.95;95368.00;5116478;28;927;-67
2022/11/29 06:07:16;;;;;;;;;;;;;;;6.47;63.80;95374.41;5116546;28;1036;-68
2022/11/29 06:09:50;;;;;;;;;;;;;;;6.45;64.18;95370.06;5116656;27;1904;-68
2022/11/29 06:12:19;;;;;;;;;;;;;;;6.59;63.84;95374.19;5116404;28;1217;-68
2022/11/29 06:14:48;;;;;;;;;;;;;;;6.68;63.40;95369.06;5116374;28;1049;-69
2022/11/29 06:17:33;;;;;;;;;;;;;;;6.73;63.35;95375.66;5116352;28;965;-68
2022/11/29 06:20:19;;;;;;;;;;;;;;;6.95;62.40;95372.00;5116245;28;1001;-67
2022/11/29 06:23:00;;;;;;;;;;;;;;;7.11;62.36;95368.84;5116465;28;1051;-68
2022/11/29 06:25:41;;;;;;;;;;;;;;;7.24;62.55;95369.44;5116179;27;1063;-68
2022/11/29 06:28:31;;;;;;;;;;;;;;;7.29;61.66;95361.06;5114985;28;1318;-68
2022/11/29 06:31:15;;;;;;;;;;;;;;;7.31;60.78;95368.91;5116037;28;1905;-68
2022/11/29 06:33:41;;;;;;;;;;;;;;;7.32;61.83;95376.78;5115989;28;1115;-68
2022/11/29 06:36:14;;;;;;;;;;;;;;;7.36;61.37;95379.97;5116080;28;981;-67
2022/11/29 06:38:41;;;;;;;;;;;;;;;7.38;61.73;95380.69;5115524;28;1505;-67
2022/11/29 06:41:08;;;;;;;;;;;;;;;7.43;61.62;95381.13;5115882;28;1203;-67
2022/11/29 06:43:35;;;;;;;;;;;;;;;7.43;61.61;95370.47;5115995;28;1329;-67
2022/11/29 06:46:24;;;;;;;;;;;;;;;7.50;62.41;95379.59;5115808;28;1188;-68
2022/11/29 06:48:52;;;;;;;;;;;;;;;7.51;61.74;95378.63;5107630;28;1243;-67
2022/11/29 06:51:31;;;;;;;;;;;;;;;7.54;61.57;95380.19;5115414;28;1906;-67
2022/11/29 06:54:00;;;;;;;;;;;;;;;7.56;61.21;95380.88;5115710;28;1060;-68
2022/11/29 06:56:45;;;;;;;;;;;;;;;7.56;61.78;95381.72;5115612;28;1023;-68
2022/11/29 06:59:11;;;;;;;;;;;;;;;7.52;61.73;95377.66;5115526;28;1124;-67
2022/11/29 07:01:42;;;;;;;;;;;;;;;7.39;61.68;95380.53;5115487;28;1075;-69
2022/11/29 07:04:08;;;;;;;;;;;;;;;7.33;61.65;95386.41;5115691;28;1012;-69
2022/11/29 07:06:34;;;;;;;;;;;;;;;7.37;61.49;95384.34;5115476;28;961;-69
2022/11/29 07:09:03;;;;;;;;;;;;;;;7.45;61.39;95388.97;5114567;28;1016;-69
2022/11/29 07:11:29;;;;;;;;;;;;;;;7.46;61.05;95391.50;5114866;28;1068;-69
2022/11/29 07:13:55;;;;;;;;;;;;;;;7.44;61.59;95380.16;5115158;28;1048;-69
2022/11/29 07:16:24;;;;;;;;;;;;;;;7.53;60.98;95389.13;5115087;28;1064;-69
2022/11/29 07:18:59;;;;;;;;;;;;;;;7.55;60.45;95398.66;5115287;28;991;-69
2022/11/29 07:21:26;;;;;;;;;;;;;;;7.62;60.65;95391.81;5115254;28;1043;-69
2022/11/29 07:24:07;;;;;;;;;;;;;;;7.60;60.38;95392.94;5115122;28;1024;-69
2022/11/29 07:26:52;;;;;;;;;;;;;;;7.32;60.63;95387.41;5114868;28;1053;-69
2022/11/29 07:29:27;;;;;;;;;;;;;;;7.38;61.05;95397.50;5115048;28;1898;-70
2022/11/29 07:32:05;;;;;;;;;;;;;;;7.49;60.54;95385.06;5115153;28;988;-69
2022/11/29 07:34:43;;;;;;;;;;;;;;;7.39;60.47;95387.69;5114971;28;1211;-69
2022/11/29 07:37:15;;;;;;;;;;;;;;;7.55;60.26;95387.16;5114843;28;1026;-69
2022/11/29 07:39:58;;;;;;;;;;;;;;;7.48;59.46;95394.88;5114443;28;1401;-69
2022/11/29 07:42:30;;;;;;;;;;;;;;;7.48;59.93;95402.00;5114825;28;1043;-69
2022/11/29 07:45:19;;;;;;;;;;;;;;;7.47;60.86;95398.50;5114838;28;1035;-68
2022/11/29 07:47:45;;;;;;;;;;;;;;;7.57;60.66;95395.84;5106402;28;1553;-68
2022/11/29 07:50:11;;;;;;;;;;;;;;;7.55;60.02;95400.47;5114615;28;1918;-68
2022/11/29 07:52:38;;;;;;;;;;;;;;;7.68;59.98;95387.75;5114663;28;1028;-68
2022/11/29 07:55:04;;;;;;;;;;;;;;;7.74;59.43;95392.53;5130487;27;1016;-67
2022/11/29 07:57:30;;;;;;;;;;;;;;;7.70;59.75;95390.28;5114313;28;1048;-68
2022/11/29 07:59:56;;;;;;;;;;;;;;;7.65;59.98;95395.19;5114455;28;1011;-68
2022/11/29 08:02:26;;;;;;;;;;;;;;;7.43;60.15;95397.09;5114191;28;1035;-68
2022/11/29 08:04:52;;;;;;;;;;;;;;;7.35;60.27;95403.09;5114540;28;1063;-68
2022/11/29 08:07:18;;;;;;;;;;;;;;;7.46;61.13;95402.16;5114090;28;1224;-68
2022/11/29 08:09:44;;;;;;;;;;;;;;;7.42;61.02;95408.72;5114089;28;1898;-67
2022/11/29 08:12:10;;;;;;;;;;;;;;;7.43;60.40;95405.91;5113004;28;1152;-68
2022/11/29 08:14:36;;;;;;;;;;;;;;;7.51;61.36;95407.03;5114024;28;909;-68
2022/11/29 08:17:02;;;;;;;;;;;;;;;7.62;60.98;95404.28;5114073;28;1040;-68
2022/11/29 08:19:28;;;;;;;;;;;;;;;7.85;59.66;95404.88;5113981;27;1112;-68
2022/11/29 08:21:54;;;;;;;;;;;;;;;8.02;59.56;95406.00;5113977;28;1028;-68
2022/11/29 08:24:21;;;;;;;;;;;;;;;8.06;58.78;95399.41;5113968;28;1096;-68
2022/11/29 08:26:47;;;;;;;;;;;;;;;8.18;58.95;95398.31;5114070;28;1052;-68
2022/11/29 08:29:14;;;;;;;;;;;;;;;8.28;58.96;95411.63;5113872;28;1910;-67
2022/11/29 08:31:40;;;;;;;;;;;;;;;8.29;58.63;95405.34;5113896;28;1124;-68
2022/11/29 08:34:28;;;;;;;;;;;;;;;8.38;58.78;95403.63;5114079;28;993;-68
2022/11/29 08:36:55;;;;;;;;;;;;;;;8.33;58.93;95408.56;5114102;28;1567;-68
2022/11/29 08:39:21;;;;;;;;;;;;;;;8.32;58.49;95401.53;5113623;28;1305;-68
2022/11/29 08:41:49;;;;;;;;;;;;;;;8.36;58.57;95398.44;5113897;28;1162;-68
2022/11/29 08:44:15;;;;;;;;;;;;;;;8.23;58.60;95402.38;5113706;28;988;-68
2022/11/29 08:49:26;;;;;;;;;;;;;;;8.35;58.61;95398.59;5113834;28;1909;-68
2022/11/29 08:53:40;;;;;;;;;;;;;;;8.37;58.82;95394.81;5113680;28;1048;-68
2022/11/29 08:54:38;;;;;;;;;;;;;;;8.40;59.24;95399.00;5113732;28;1532;-68
2022/11/29 08:57:04;;;;;;;;;;;;;;;8.43;59.64;95397.91;5113736;28;1032;-68
2022/11/29 08:59:31;;;;;;;;;;;;;;;8.47;58.86;95399.31;5113753;28;976;-69
2022/11/29 09:01:57;;;;;;;;;;;;;;;8.56;58.81;95398.47;5113823;28;976;-67
2022/11/29 09:04:23;;;;;;;;;;;;;;;8.53;58.43;95388.91;5113591;28;984;-71
2022/11/29 09:06:49;;;;;;;;;;;;;;;8.58;57.92;95388.50;5113612;28;1049;-69
2022/11/29 09:09:15;;;;;;;;;;;;;;;8.55;58.07;95389.59;5113392;28;1906;-69
2022/11/29 09:11:42;;;;;;;;;;;;;;;8.52;58.92;95378.41;5113740;28;1064;-67
2022/11/29 09:14:11;;;;;;;;;;;;;;;8.52;58.39;95381.91;5113595;28;1076;-67
2022/11/29 09:16:37;;;;;;;;;;;;;;;8.57;58.76;95378.81;5113510;28;1685;-68
2022/11/29 09:19:04;;;;;;;;;;;;;;;8.66;58.15;95372.63;5113512;28;1088;-68
2022/11/29 09:21:31;;;;;;;;;;;;;;;8.53;57.84;95372.09;5113360;28;1132;-68
2022/11/29 09:23:58;;;;;;;;;;;;;;;8.15;59.23;95374.63;5113348;28;1318;-66
2022/11/29 09:26:29;;;;;;;;;;;;;;;8.20;59.97;95367.06;5113601;28;961;-67
2022/11/29 09:28:56;;;;;;;;;;;;;;;8.45;59.04;95367.47;5113696;28;1067;-67
2022/11/29 09:31:22;;;;;;;;;;;;;;;8.50;59.19;95367.91;5113380;28;1901;-69
2022/11/29 09:33:49;;;;;;;;;;;;;;;8.55;58.82;95367.44;5112407;28;1314;-69
2022/11/29 09:36:15;;;;;;;;;;;;;;;8.59;58.76;95367.03;5098089;28;1310;-67
2022/11/29 09:38:41;;;;;;;;;;;;;;;8.49;58.47;95366.19;5103831;28;1234;-67
2022/11/29 09:41:18;;;;;;;;;;;;;;;8.61;58.63;95364.22;5117123;28;1029;-66
2022/11/29 09:43:54;;;;;;;;;;;;;;;8.81;58.66;95362.34;5117301;28;1127;-67
2022/11/29 09:46:21;;;;;;;;;;;;;;;8.88;58.32;95355.44;5107633;28;1660;-66
2022/11/29 09:48:53;;;;;;;;;;;;;;;8.89;59.18;95361.63;5096468;28;984;-68
2022/11/29 09:51:41;;;;;;;;;;;;;;;8.92;58.11;95361.34;5096187;28;1983;-67
2022/11/29 09:54:16;;;;;;;;;;;;;;;8.79;57.78;95361.66;5096424;28;1056;-70
2022/11/29 09:56:45;;;;;;;;;;;;;;;8.77;59.02;95355.63;5095020;28;1366;-70
2022/11/29 09:59:21;;;;;;;;;;;;;;;8.60;58.35;95357.22;5096304;28;1069;-70
2022/11/29 10:01:53;;;;;;;;;;;;;;;8.64;59.81;95358.59;5096213;28;1164;-70
2022/11/29 10:04:26;;;;;;;;;;;;;;;8.81;58.71;95353.50;5096381;28;1091;-69
2022/11/29 10:06:56;;;;;;;;;;;;;;;8.87;58.68;95353.75;5095994;28;1136;-70
2022/11/29 10:09:22;;;;;;;;;;;;;;;8.96;58.48;95355.56;5094897;28;1913;-70
2022/11/29 10:12:00;;;;;;;;;;;;;;;8.86;58.42;95351.22;5095991;28;1324;-70
2022/11/29 10:14:33;;;;;;;;;;;;;;;8.79;59.05;95346.47;5096209;28;1041;-69
2022/11/29 10:17:25;;;;;;;;;;;;;;;8.74;59.12;95347.91;5095689;28;984;-70
2022/11/29 10:19:56;;;;;;;;;;;;;;;8.58;59.30;95348.53;5072543;28;1238;-69
2022/11/29 10:22:27;;;;;;;;;;;;;;;8.55;59.60;95348.81;5095798;28;1000;-69
2022/11/29 10:24:58;;;;;;;;;;;;;;;8.69;58.79;95343.03;5096051;28;998;-70
2022/11/29 10:27:28;;;;;;;;;;;;;;;8.86;59.09;95343.22;5095480;28;1212;-70
2022/11/29 10:29:59;;;;;;;;;;;;;;;8.97;59.26;95337.72;5095581;28;2013;-69
2022/11/29 10:32:29;;;;;;;;;;;;;;;9.12;59.12;95341.56;5095880;28;1660;-67
2022/11/29 10:34:57;;;;;;;;;;;;;;;9.27;58.39;95330.44;5095508;28;1049;-68
2022/11/29 10:37:23;;;;;;;;;;;;;;;9.34;57.91;95336.84;5095219;28;1122;-68
2022/11/29 10:39:52;;;;;;;;;;;;;;;9.41;58.11;95335.28;5112422;28;1181;-69
2022/11/29 10:45:16;;;;;;;;;;;;;;;9.45;57.94;95331.31;5115688;28;1051;-68
2022/11/29 10:47:45;;;;;;;;;;;;;;;9.45;57.68;95330.47;5097135;27;1314;-69
2022/11/29 10:50:16;;;;;;;;;;;;;;;9.52;57.67;95329.72;5094015;28;1965;-69
2022/11/29 10:52:42;;;;;;;;;;;;;;;9.51;57.39;95330.72;5095432;28;988;-69
2022/11/29 10:55:11;;;;;;;;;;;;;;;9.51;58.23;95328.03;5095295;28;1035;-69
2022/11/29 10:57:57;;;;;;;;;;;;;;;9.33;57.63;95336.03;5094977;28;1243;-69
2022/11/29 11:00:23;;;;;;;;;;;;;;;8.93;59.43;95331.00;5094838;28;1111;-69
2022/11/29 11:02:49;;;;;;;;;;;;;;;9.14;58.80;95338.78;5095030;28;1052;-69
2022/11/29 11:05:23;;;;;;;;;;;;;;;9.06;59.49;95336.84;5095040;28;1051;-69
2022/11/29 11:07:55;;;;;;;;;;;;;;;9.18;59.00;95333.00;5094665;28;1579;-69
2022/11/29 11:10:26;;;;;;;;;;;;;;;9.27;58.45;95333.94;5094730;28;1977;-68
2022/11/29 11:13:02;;;;;;;;;;;;;;;9.29;58.46;95336.44;5094834;28;1033;-69
2022/11/29 11:15:30;;;;;;;;;;;;;;;9.34;57.60;95334.19;5094864;28;965;-69
2022/11/29 11:17:58;;;;;;;;;;;;;;;9.40;57.33;95330.91;5094671;28;1036;-68
2022/11/29 11:20:26;;;;;;;;;;;;;;;9.50;56.76;95322.84;5094760;28;952;-68
2022/11/29 11:23:00;;;;;;;;;;;;;;;9.44;57.14;95336.78;5094690;28;1008;-69
2022/11/29 11:25:37;;;;;;;;;;;;;;;9.47;58.10;95331.16;5094821;28;1077;-69
2022/11/29 11:28:21;;;;;;;;;;;;;;;9.57;57.44;95326.59;5094219;28;1062;-68
2022/11/29 11:30:55;;;;;;;;;;;;;;;9.65;57.00;95321.34;5094393;28;1981;-68
2022/11/29 11:33:26;;;;;;;;;;;;;;;9.69;56.79;95321.88;5094231;28;1112;-69
2022/11/29 11:36:04;;;;;;;;;;;;;;;9.70;57.02;95328.91;5094082;28;1147;-66
2022/11/29 11:38:32;;;;;;;;;;;;;;;9.71;57.25;95320.75;5100341;28;1146;-68
2022/11/29 11:41:21;;;;;;;;;;;;;;;9.66;57.24;95330.22;5114560;28;1303;-68
2022/11/29 11:43:56;;;;;;;;;;;;;;;9.65;56.65;95332.00;5106403;28;1481;-69
2022/11/29 11:46:23;;;;;;;;;;;;;;;9.53;56.67;95315.38;5108891;28;1403;-68
2022/11/29 11:48:50;;;;;;;;;;;;;;;9.41;57.47;95310.41;5094122;28;1073;-68
2022/11/29 11:51:21;;;;;;;;;;;;;;;9.43;57.61;95308.41;5093938;28;1981;-69
2022/11/29 11:53:53;;;;;;;;;;;;;;;9.56;57.01;95307.06;5094181;28;1020;-68
2022/11/29 11:56:20;;;;;;;;;;;;;;;9.81;56.68;95301.13;5093152;28;1187;-69
2022/11/29 11:58:48;;;;;;;;;;;;;;;9.65;56.65;95297.31;5093901;28;1008;-69
2022/11/29 12:01:22;;;;;;;;;;;;;;;9.73;56.92;95297.41;5093890;28;1107;-68
2022/11/29 12:03:48;;;;;;;;;;;;;;;9.51;57.18;95290.66;5093904;28;1085;-68
2022/11/29 12:06:26;;;;;;;;;;;;;;;9.44;57.25;95291.44;5093679;28;1296;-70
2022/11/29 12:09:04;;;;;;;;;;;;;;;9.32;57.68;95280.97;5093901;28;981;-69
2022/11/29 12:11:35;;;;;;;;;;;;;;;9.40;57.75;95290.06;5093922;28;1955;-69
2022/11/29 12:14:03;;;;;;;;;;;;;;;9.62;57.95;95288.75;5094007;28;1144;-69
2022/11/29 12:16:33;;;;;;;;;;;;;;;9.76;57.90;95288.25;5093566;28;1390;-70
2022/11/29 12:19:02;;;;;;;;;;;;;;;9.90;57.23;95278.84;5093843;28;1024;-68
2022/11/29 12:21:32;;;;;;;;;;;;;;;10.02;56.68;95282.13;5093726;28;969;-68
2022/11/29 12:24:12;;;;;;;;;;;;;;;10.11;56.84;95283.84;5093949;28;965;-68
2022/11/29 12:26:40;;;;;;;;;;;;;;;10.04;56.45;95285.50;5093480;28;1227;-67
2022/11/29 12:29:14;;;;;;;;;;;;;;;9.93;56.94;95278.53;5093621;28;1156;-67
2022/11/29 12:31:40;;;;;;;;;;;;;;;9.84;57.05;95279.47;5093517;28;1973;-68
2022/11/29 12:34:20;;;;;;;;;;;;;;;9.60;57.01;95274.72;5093441;28;1045;-68
2022/11/29 12:36:46;;;;;;;;;;;;;;;9.51;57.26;95269.31;5092220;28;1148;-68
2022/11/29 12:39:22;;;;;;;;;;;;;;;9.69;58.13;95269.31;5105080;28;1201;-68
2022/11/29 12:41:54;;;;;;;;;;;;;;;9.67;56.93;95273.97;5113945;28;972;-67
2022/11/29 12:44:20;;;;;;;;;;;;;;;9.55;57.64;95278.69;5112585;28;1051;-68
2022/11/29 12:47:06;;;;;;;;;;;;;;;9.67;57.72;95271.28;5106636;28;1437;-68
2022/11/29 12:49:55;;;;;;;;;;;;;;;9.71;58.17;95271.84;5093118;28;1906;-68
2022/11/29 12:52:38;;;;;;;;;;;;;;;9.69;57.92;95276.47;5093083;28;1304;-68
2022/11/29 12:55:17;;;;;;;;;;;;;;;9.50;57.40;95280.13;5093371;28;1027;-68
2022/11/29 12:58:06;;;;;;;;;;;;;;;9.21;58.14;95278.50;5093121;28;1498;-68
2022/11/29 13:00:38;;;;;;;;;;;;;;;8.97;58.74;95274.56;5085212;28;1230;-68
2022/11/29 13:03:30;;;;;;;;;;;;;;;9.03;59.22;95278.47;5093367;28;1080;-67
2022/11/29 13:06:02;;;;;;;;;;;;;;;9.00;58.92;95278.75;5090417;28;1134;-67
2022/11/29 13:08:28;;;;;;;;;;;;;;;8.95;59.12;95273.88;5096999;28;1112;-68
2022/11/29 13:11:13;;;;;;;;;;;;;;;9.15;59.19;95285.28;5097386;28;1997;-68
2022/11/29 13:13:42;;;;;;;;;;;;;;;9.35;59.03;95277.16;5097323;28;1115;-67
2022/11/29 13:16:11;;;;;;;;;;;;;;;9.36;58.73;95278.84;5097423;28;1161;-68
2022/11/29 13:18:44;;;;;;;;;;;;;;;9.40;58.86;95280.22;5117554;28;1108;-68
2022/11/29 13:21:15;;;;;;;;;;;;;;;9.39;58.60;95281.22;5117716;28;968;-68
2022/11/29 13:23:50;;;;;;;;;;;;;;;9.36;59.16;95281.50;5117451;28;928;-68
2022/11/29 13:26:17;;;;;;;;;;;;;;;9.38;58.92;95279.53;5117082;28;1198;-68
2022/11/29 13:28:45;;;;;;;;;;;;;;;9.42;58.77;95283.56;5117296;28;1084;-68
2022/11/29 13:31:14;;;;;;;;;;;;;;;9.39;58.30;95283.88;5117222;28;1910;-68
2022/11/29 13:33:40;;;;;;;;;;;;;;;9.36;59.13;95285.00;5117436;28;980;-68
2022/11/29 13:36:16;;;;;;;;;;;;;;;9.38;59.29;95277.69;5117318;28;964;-66
2022/11/29 13:39:02;;;;;;;;;;;;;;;9.33;59.09;95284.47;5116993;28;1238;-68
2022/11/29 13:41:31;;;;;;;;;;;;;;;8.97;59.49;95284.38;5117211;28;973;-68
2022/11/29 13:43:58;;;;;;;;;;;;;;;9.01;60.25;95288.47;5115793;28;1127;-68